Time;durP1;ratioP1;P1;durP2;ratioP2;P2;SDS_P1;SDS_P2;PMS_P1;PMS_P2;Temp;Humidity;BMP_temperature;BMP_pressure;BME280_temperature;BME280_humidity;BME280_pressure;Samples;Min_cycle;Max_cycle;Signal;HPM_P1;HPM_P2
2021/10/02 00:45:48;;;;;;;;;;;10.30;99.90;;;;;;5013623;28;20328;-73
2021/10/02 00:48:15;;;;;;;;;;;10.30;99.90;;;;;;4997413;28;20380;-75
2021/10/02 00:50:44;;;;;;;;;;;10.30;99.90;;;;;;4996662;28;19925;-73
2021/10/02 00:53:11;;;;;;;;;;;10.30;99.90;;;;;;4997406;28;19926;-73
2021/10/02 00:55:43;;;;;;;;;;;10.30;99.90;;;;;;4997250;28;20359;-73
2021/10/02 00:58:11;;;;;;;;;;;10.30;99.90;;;;;;4997471;28;19932;-73
2021/10/02 01:00:39;;;;;;;;;;;10.30;99.90;;;;;;4996568;28;20412;-74
2021/10/02 01:03:21;;;;;;;;;;;10.30;99.90;;;;;;4996759;28;19941;-74
2021/10/02 01:06:05;;;;;;;;;;;10.30;99.90;;;;;;5013003;28;19926;-74
2021/10/02 01:08:39;;;;;;;;;;;10.30;99.90;;;;;;5014049;28;19940;-73
2021/10/02 01:11:18;;;;;;;;;;;10.30;99.90;;;;;;4996145;28;20308;-73
2021/10/02 01:13:49;;;;;;;;;;;10.30;99.90;;;;;;4996273;28;19926;-73
2021/10/02 01:16:29;;;;;;;;;;;10.30;99.90;;;;;;5014199;28;19929;-74
2021/10/02 01:19:19;;;;;;;;;;;10.30;99.90;;;;;;5014657;28;19933;-73
2021/10/02 01:22:09;;;;;;;;;;;10.30;99.90;;;;;;5014565;28;19961;-73
2021/10/02 01:24:50;;;;;;;;;;;10.40;99.90;;;;;;4996703;28;19937;-74
2021/10/02 01:27:43;;;;;;;;;;;10.40;99.90;;;;;;4996209;28;19932;-74
2021/10/02 01:30:21;;;;;;;;;;;10.40;99.90;;;;;;4996218;28;19976;-73
2021/10/02 01:33:05;;;;;;;;;;;10.40;99.90;;;;;;4996079;28;19925;-72
2021/10/02 01:35:41;;;;;;;;;;;10.40;99.90;;;;;;4995991;28;19926;-74
2021/10/02 01:47:12;;;;;;;;;;;10.50;99.90;;;;;;5014020;28;19925;-73
2021/10/02 01:49:54;;;;;;;;;;;10.50;99.90;;;;;;4996206;28;19932;-74
2021/10/02 01:52:27;;;;;;;;;;;10.50;99.90;;;;;;4996261;28;19926;-74
2021/10/02 01:55:00;;;;;;;;;;;10.50;99.90;;;;;;4995951;28;20292;-74
2021/10/02 01:57:37;;;;;;;;;;;10.50;99.90;;;;;;4997058;28;19926;-72
2021/10/02 02:00:10;;;;;;;;;;;10.50;99.90;;;;;;4996219;28;19972;-73
2021/10/02 02:02:47;;;;;;;;;;;10.50;99.90;;;;;;5012649;28;19932;-73
2021/10/02 02:05:23;;;;;;;;;;;10.50;99.90;;;;;;5012116;28;19930;-74
2021/10/02 02:07:52;;;;;;;;;;;10.50;99.90;;;;;;4996081;28;19933;-73
2021/10/02 02:10:26;;;;;;;;;;;10.50;99.90;;;;;;4995871;28;19967;-74
2021/10/02 02:12:54;;;;;;;;;;;10.50;99.90;;;;;;4995808;28;19948;-74
2021/10/02 02:15:27;;;;;;;;;;;10.50;99.90;;;;;;4980149;28;19932;-74
2021/10/02 02:18:01;;;;;;;;;;;10.50;99.90;;;;;;4994970;28;19929;-74
2021/10/02 02:20:40;;;;;;;;;;;10.50;99.90;;;;;;5012299;28;20030;-74
2021/10/02 02:23:08;;;;;;;;;;;10.50;99.90;;;;;;5012337;28;19930;-74
2021/10/02 02:25:36;;;;;;;;;;;10.50;99.90;;;;;;4995340;28;19978;-74
2021/10/02 02:28:08;;;;;;;;;;;10.50;99.90;;;;;;4980211;28;20281;-73
2021/10/02 02:30:41;;;;;;;;;;;10.50;99.90;;;;;;4995508;28;19926;-73
2021/10/02 02:33:15;;;;;;;;;;;10.50;99.90;;;;;;4995568;28;19925;-74
2021/10/02 02:35:43;;;;;;;;;;;10.50;99.90;;;;;;5011469;28;20312;-74
2021/10/02 02:38:10;;;;;;;;;;;10.50;99.90;;;;;;4995543;28;19933;-74
2021/10/02 02:40:41;;;;;;;;;;;10.50;99.90;;;;;;4996303;28;19932;-74
2021/10/02 02:43:13;;;;;;;;;;;10.50;99.90;;;;;;4996333;28;19933;-74
2021/10/02 02:45:54;;;;;;;;;;;10.50;99.90;;;;;;4994881;28;19926;-73
2021/10/02 02:48:34;;;;;;;;;;;10.50;99.90;;;;;;5013125;28;19925;-74
2021/10/02 02:51:03;;;;;;;;;;;10.50;99.90;;;;;;5011370;28;19925;-73
2021/10/02 02:53:48;;;;;;;;;;;10.50;99.90;;;;;;5011413;28;19932;-73
2021/10/02 02:56:31;;;;;;;;;;;10.50;99.90;;;;;;5012630;28;19929;-73
2021/10/02 02:59:00;;;;;;;;;;;10.50;99.90;;;;;;5012395;28;19925;-73
2021/10/02 03:01:36;;;;;;;;;;;10.50;99.90;;;;;;4979650;28;19932;-73
2021/10/02 03:04:03;;;;;;;;;;;10.50;99.90;;;;;;5012335;28;19931;-73
2021/10/02 03:06:30;;;;;;;;;;;10.50;99.90;;;;;;4994757;28;19968;-73
2021/10/02 03:09:02;;;;;;;;;;;10.50;99.90;;;;;;4994964;28;20411;-73
2021/10/02 03:11:34;;;;;;;;;;;10.50;99.90;;;;;;4995178;28;20007;-73
2021/10/02 03:14:06;;;;;;;;;;;10.50;99.90;;;;;;5011034;28;20024;-73
2021/10/02 03:16:38;;;;;;;;;;;10.50;99.90;;;;;;5011592;28;20404;-73
2021/10/02 03:19:12;;;;;;;;;;;10.50;99.90;;;;;;4995772;28;19994;-73
2021/10/02 03:21:45;;;;;;;;;;;10.50;99.90;;;;;;4994621;28;19929;-73
2021/10/02 03:24:14;;;;;;;;;;;10.50;99.90;;;;;;4994607;28;19925;-73
2021/10/02 03:26:41;;;;;;;;;;;10.50;99.90;;;;;;5011083;28;19933;-73
2021/10/02 03:29:13;;;;;;;;;;;10.60;99.90;;;;;;5011991;28;19980;-73
2021/10/02 03:31:40;;;;;;;;;;;10.60;99.90;;;;;;5012151;28;20299;-73
2021/10/02 03:34:13;;;;;;;;;;;10.60;99.90;;;;;;4994210;28;19926;-73
2021/10/02 03:36:40;;;;;;;;;;;10.70;99.90;;;;;;4994675;28;19926;-73
2021/10/02 03:39:14;;;;;;;;;;;10.70;99.90;;;;;;4994622;28;19925;-73
2021/10/02 03:42:05;;;;;;;;;;;10.60;99.90;;;;;;5011147;28;19926;-73
2021/10/02 03:44:41;;;;;;;;;;;10.60;99.90;;;;;;4994354;28;19925;-73
2021/10/02 03:47:13;;;;;;;;;;;10.60;99.90;;;;;;4994651;28;19925;-73
2021/10/02 03:49:46;;;;;;;;;;;10.60;99.90;;;;;;4994739;28;19926;-73
2021/10/02 03:52:20;;;;;;;;;;;10.60;99.90;;;;;;5012001;28;20000;-73
2021/10/02 03:54:47;;;;;;;;;;;10.60;99.90;;;;;;4994176;28;19925;-73
2021/10/02 03:57:18;;;;;;;;;;;10.60;99.90;;;;;;5011038;28;19933;-73
2021/10/02 03:59:46;;;;;;;;;;;10.60;99.90;;;;;;4994481;28;19932;-73
2021/10/02 04:02:18;;;;;;;;;;;10.60;99.90;;;;;;4994416;28;19952;-73
2021/10/02 04:04:44;;;;;;;;;;;10.60;99.90;;;;;;4993953;28;19973;-73
2021/10/02 04:07:17;;;;;;;;;;;10.60;99.90;;;;;;4994358;28;19933;-73
2021/10/02 04:09:48;;;;;;;;;;;10.60;99.90;;;;;;4994508;28;19932;-73
2021/10/02 04:12:20;;;;;;;;;;;10.60;99.90;;;;;;4994152;28;19925;-73
2021/10/02 04:14:48;;;;;;;;;;;10.60;99.90;;;;;;5011637;28;20435;-73
2021/10/02 04:17:20;;;;;;;;;;;10.60;99.90;;;;;;5012013;28;19975;-73
2021/10/02 04:19:54;;;;;;;;;;;10.60;99.90;;;;;;4994392;28;19925;-73
2021/10/02 04:22:26;;;;;;;;;;;10.60;99.90;;;;;;4994223;28;20350;-73
2021/10/02 04:24:57;;;;;;;;;;;10.60;99.90;;;;;;4978637;28;20019;-73
2021/10/02 04:27:29;;;;;;;;;;;10.60;99.90;;;;;;5011821;28;19929;-73
2021/10/02 04:30:02;;;;;;;;;;;10.60;99.90;;;;;;5011423;28;20016;-73
2021/10/02 04:32:29;;;;;;;;;;;10.50;99.90;;;;;;4994163;28;19980;-73
2021/10/02 04:35:03;;;;;;;;;;;10.50;99.90;;;;;;4993932;28;19932;-73
2021/10/02 04:37:29;;;;;;;;;;;10.60;99.90;;;;;;5010517;28;19925;-73
2021/10/02 04:39:57;;;;;;;;;;;10.60;99.90;;;;;;4994197;28;19930;-73
2021/10/02 04:42:28;;;;;;;;;;;10.60;99.90;;;;;;4997178;28;19929;-73
2021/10/02 04:45:01;;;;;;;;;;;10.60;99.90;;;;;;4997324;28;20064;-73
2021/10/02 04:47:31;;;;;;;;;;;10.70;99.90;;;;;;4997543;28;19925;-73
2021/10/02 04:49:58;;;;;;;;;;;10.70;99.90;;;;;;4997705;28;19949;-73
2021/10/02 04:52:30;;;;;;;;;;;10.70;99.90;;;;;;5015055;28;19926;-72
2021/10/02 04:54:57;;;;;;;;;;;10.70;99.90;;;;;;4997337;28;19929;-73
2021/10/02 04:57:25;;;;;;;;;;;10.70;99.90;;;;;;4997354;28;20281;-72
2021/10/02 04:59:52;;;;;;;;;;;10.60;99.90;;;;;;4997554;28;19952;-73
2021/10/02 05:02:20;;;;;;;;;;;10.70;99.90;;;;;;4981379;28;19926;-73
2021/10/02 05:04:47;;;;;;;;;;;10.70;99.90;;;;;;5014411;28;19933;-73
2021/10/02 05:07:14;;;;;;;;;;;10.70;99.90;;;;;;5013643;28;20307;-73
2021/10/02 05:09:43;;;;;;;;;;;10.70;99.90;;;;;;4996642;28;20040;-73
2021/10/02 05:12:14;;;;;;;;;;;10.70;99.90;;;;;;5013011;28;20384;-72
2021/10/02 05:14:41;;;;;;;;;;;10.70;99.90;;;;;;4996696;28;19925;-73
2021/10/02 05:17:11;;;;;;;;;;;10.70;99.90;;;;;;5014112;28;19937;-73
2021/10/02 05:19:43;;;;;;;;;;;10.70;99.90;;;;;;4996879;28;19925;-74
2021/10/02 05:22:10;;;;;;;;;;;10.60;99.90;;;;;;5013203;28;19930;-72
2021/10/02 05:24:37;;;;;;;;;;;10.60;99.90;;;;;;5013803;28;19965;-73
2021/10/02 05:27:09;;;;;;;;;;;10.60;99.90;;;;;;5014584;28;20376;-73
2021/10/02 05:29:41;;;;;;;;;;;10.60;99.90;;;;;;4993380;28;19932;-73
2021/10/02 05:32:09;;;;;;;;;;;10.60;99.90;;;;;;4976215;28;20046;-72
2021/10/02 05:34:36;;;;;;;;;;;10.60;99.90;;;;;;4993422;28;19930;-73
2021/10/02 05:37:03;;;;;;;;;;;10.60;99.90;;;;;;4976192;28;19925;-72
2021/10/02 05:39:30;;;;;;;;;;;10.50;99.90;;;;;;4973515;28;19925;-73
2021/10/02 05:42:02;;;;;;;;;;;10.60;99.90;;;;;;4987420;28;20308;-74
2021/10/02 05:44:34;;;;;;;;;;;10.60;99.90;;;;;;5006380;28;19930;-74
2021/10/02 05:47:06;;;;;;;;;;;10.60;99.90;;;;;;4995814;28;19930;-74
2021/10/02 05:49:38;;;;;;;;;;;10.60;99.90;;;;;;4980668;28;19965;-74
2021/10/02 05:52:10;;;;;;;;;;;10.60;99.90;;;;;;4960156;28;19933;-72
2021/10/02 05:54:42;;;;;;;;;;;10.60;99.90;;;;;;4992876;28;19933;-73
2021/10/02 05:57:14;;;;;;;;;;;10.60;99.90;;;;;;4976580;28;20039;-72
2021/10/02 05:59:40;;;;;;;;;;;10.70;99.90;;;;;;4975626;28;19925;-74
2021/10/02 06:02:07;;;;;;;;;;;10.70;99.90;;;;;;4975559;28;19926;-73
2021/10/02 06:04:34;;;;;;;;;;;10.70;99.90;;;;;;4974792;28;19929;-73
2021/10/02 06:07:01;;;;;;;;;;;10.70;99.90;;;;;;4992957;28;19937;-72
2021/10/02 06:09:33;;;;;;;;;;;10.70;99.90;;;;;;4975574;28;20392;-72
2021/10/02 06:12:05;;;;;;;;;;;10.70;99.90;;;;;;4991367;28;19926;-73
2021/10/02 06:14:36;;;;;;;;;;;10.80;99.90;;;;;;4975994;28;19926;-73
2021/10/02 06:17:08;;;;;;;;;;;10.80;99.90;;;;;;4975116;28;19973;-73
2021/10/02 06:19:40;;;;;;;;;;;10.80;99.90;;;;;;4976541;28;19953;-74
2021/10/02 06:22:14;;;;;;;;;;;10.90;99.90;;;;;;4992367;28;19926;-73
2021/10/02 06:24:42;;;;;;;;;;;10.90;99.90;;;;;;4975241;28;20396;-73
2021/10/02 06:27:08;;;;;;;;;;;10.90;99.90;;;;;;4976696;28;19940;-74
2021/10/02 06:29:40;;;;;;;;;;;10.90;99.90;;;;;;4975099;28;19926;-74
2021/10/02 06:32:07;;;;;;;;;;;10.90;99.90;;;;;;4986083;28;19929;-74
2021/10/02 06:34:39;;;;;;;;;;;10.90;99.90;;;;;;4974488;28;19936;-74
2021/10/02 06:37:10;;;;;;;;;;;10.90;99.90;;;;;;4975987;28;19936;-74
2021/10/02 06:39:42;;;;;;;;;;;10.90;99.90;;;;;;4992580;28;19988;-73
2021/10/02 06:42:14;;;;;;;;;;;10.90;99.90;;;;;;4993102;28;20395;-73
2021/10/02 06:44:41;;;;;;;;;;;10.80;99.90;;;;;;4973463;28;19933;-73
2021/10/02 06:47:08;;;;;;;;;;;10.80;99.90;;;;;;4973099;28;19937;-73
2021/10/02 06:49:40;;;;;;;;;;;10.80;99.90;;;;;;4991827;28;19926;-73
2021/10/02 06:52:06;;;;;;;;;;;10.80;99.90;;;;;;4991892;28;19933;-73
2021/10/02 06:54:38;;;;;;;;;;;10.80;99.90;;;;;;4971234;28;19936;-71
2021/10/02 06:57:07;;;;;;;;;;;10.80;99.90;;;;;;4974698;28;20378;-72
2021/10/02 06:59:39;;;;;;;;;;;10.80;99.90;;;;;;4975007;28;19929;-72
2021/10/02 07:02:10;;;;;;;;;;;10.80;99.90;;;;;;4978602;28;20411;-72
2021/10/02 07:04:44;;;;;;;;;;;10.90;99.90;;;;;;4995116;28;19932;-72
2021/10/02 07:07:17;;;;;;;;;;;10.90;99.90;;;;;;4992715;28;19933;-72
2021/10/02 07:09:44;;;;;;;;;;;11.00;99.90;;;;;;4984277;28;19930;-72
2021/10/02 07:12:11;;;;;;;;;;;11.00;99.90;;;;;;4972062;28;19937;-73
2021/10/02 07:14:43;;;;;;;;;;;11.00;99.90;;;;;;4972640;28;20309;-72
2021/10/02 07:17:15;;;;;;;;;;;11.00;99.90;;;;;;4971789;28;19980;-73
2021/10/02 07:19:47;;;;;;;;;;;11.00;99.90;;;;;;4977843;28;19932;-72
2021/10/02 07:22:19;;;;;;;;;;;11.00;99.90;;;;;;4978760;28;19935;-73
2021/10/02 07:24:45;;;;;;;;;;;11.10;99.90;;;;;;5001342;28;19926;-75
2021/10/02 07:27:12;;;;;;;;;;;11.10;99.90;;;;;;4993208;28;20513;-72
2021/10/02 07:29:44;;;;;;;;;;;11.20;99.90;;;;;;4973065;28;19926;-73
2021/10/02 07:32:11;;;;;;;;;;;11.30;99.90;;;;;;4971249;28;19929;-74
2021/10/02 07:34:42;;;;;;;;;;;11.50;99.90;;;;;;4972468;28;19941;-74
2021/10/02 07:37:09;;;;;;;;;;;11.60;99.90;;;;;;4972590;28;19926;-74
2021/10/02 07:39:41;;;;;;;;;;;11.70;99.90;;;;;;4986412;28;19926;-73
2021/10/02 07:42:10;;;;;;;;;;;11.80;99.90;;;;;;4994047;28;19970;-74
2021/10/02 07:44:37;;;;;;;;;;;11.80;99.90;;;;;;4976201;28;19926;-73
2021/10/02 07:47:04;;;;;;;;;;;11.90;99.90;;;;;;4967541;28;19933;-73
2021/10/02 07:49:36;;;;;;;;;;;12.00;99.90;;;;;;4986275;28;19972;-74
2021/10/02 07:52:08;;;;;;;;;;;12.20;99.90;;;;;;4969324;28;20439;-74
2021/10/02 07:54:36;;;;;;;;;;;12.30;99.90;;;;;;4970444;28;20028;-80
2021/10/02 07:57:08;;;;;;;;;;;12.40;99.90;;;;;;4968568;28;19964;-74
2021/10/02 07:59:40;;;;;;;;;;;12.60;99.90;;;;;;4978191;28;20385;-73
2021/10/02 08:02:16;;;;;;;;;;;12.80;99.90;;;;;;4981227;28;19940;-73
2021/10/02 08:04:48;;;;;;;;;;;12.90;99.90;;;;;;4988200;28;19925;-73
2021/10/02 08:07:20;;;;;;;;;;;13.00;99.90;;;;;;4991607;28;20389;-72
2021/10/02 08:09:47;;;;;;;;;;;13.10;99.90;;;;;;4963247;28;19934;-74
2021/10/02 08:12:14;;;;;;;;;;;13.10;99.90;;;;;;4966342;28;20373;-73
2021/10/02 08:14:41;;;;;;;;;;;13.10;99.90;;;;;;4974785;28;19930;-74
2021/10/02 08:17:13;;;;;;;;;;;13.10;99.90;;;;;;4971174;28;20003;-73
2021/10/02 08:19:40;;;;;;;;;;;13.10;99.90;;;;;;4988604;28;20336;-74
2021/10/02 08:22:12;;;;;;;;;;;13.20;99.90;;;;;;4982504;28;19926;-73
2021/10/02 08:24:40;;;;;;;;;;;13.30;99.90;;;;;;4966611;28;20018;-73
2021/10/02 08:27:12;;;;;;;;;;;13.40;99.90;;;;;;4979144;28;19933;-74
2021/10/02 08:29:44;;;;;;;;;;;13.50;99.90;;;;;;4996441;28;19929;-73
2021/10/02 08:32:17;;;;;;;;;;;13.60;99.90;;;;;;4996402;28;19925;-74
2021/10/02 08:34:43;;;;;;;;;;;13.60;99.90;;;;;;4996834;28;19933;-73
2021/10/02 08:37:15;;;;;;;;;;;13.60;99.90;;;;;;4996632;28;19929;-73
2021/10/02 08:39:47;;;;;;;;;;;13.60;99.90;;;;;;4996998;28;19933;-74
2021/10/02 08:42:19;;;;;;;;;;;13.60;99.90;;;;;;4997333;28;19935;-74
2021/10/02 08:44:49;;;;;;;;;;;13.60;99.90;;;;;;4996776;28;20308;-74
2021/10/02 08:47:21;;;;;;;;;;;13.70;99.90;;;;;;4992640;28;19934;-74
2021/10/02 08:49:54;;;;;;;;;;;13.70;99.90;;;;;;4977925;28;19988;-74
2021/10/02 08:52:28;;;;;;;;;;;13.80;99.90;;;;;;4993874;28;19926;-74
2021/10/02 08:54:55;;;;;;;;;;;13.90;99.90;;;;;;4975339;28;20381;-72
2021/10/02 08:57:23;;;;;;;;;;;14.00;99.90;;;;;;4975470;28;19953;-73
2021/10/02 08:59:55;;;;;;;;;;;14.10;99.90;;;;;;4978448;28;19926;-74
2021/10/02 09:02:27;;;;;;;;;;;14.20;99.90;;;;;;4963516;28;19932;-74
2021/10/02 09:04:54;;;;;;;;;;;14.30;99.90;;;;;;4994154;28;19930;-73
2021/10/02 09:07:23;;;;;;;;;;;14.40;99.90;;;;;;4978366;28;19926;-73
2021/10/02 09:09:55;;;;;;;;;;;14.40;99.90;;;;;;4994435;28;19926;-73
2021/10/02 09:12:27;;;;;;;;;;;14.50;99.90;;;;;;4976873;28;19926;-73
2021/10/02 09:14:56;;;;;;;;;;;14.60;99.90;;;;;;4977225;28;19926;-73
2021/10/02 09:17:24;;;;;;;;;;;14.60;99.90;;;;;;4976929;28;20351;-73
2021/10/02 09:19:57;;;;;;;;;;;14.70;99.90;;;;;;4961837;28;19933;-74
2021/10/02 09:22:28;;;;;;;;;;;14.80;99.90;;;;;;4977706;28;19926;-74
2021/10/02 09:24:58;;;;;;;;;;;14.90;99.90;;;;;;4993863;28;19933;-73
2021/10/02 09:27:27;;;;;;;;;;;15.00;99.90;;;;;;4992913;28;19930;-73
2021/10/02 09:30:00;;;;;;;;;;;15.00;99.90;;;;;;4993411;28;19962;-73
2021/10/02 09:32:35;;;;;;;;;;;15.20;99.90;;;;;;4977039;28;19925;-73
2021/10/02 09:35:09;;;;;;;;;;;15.30;99.90;;;;;;4976419;28;19945;-75
2021/10/02 09:37:42;;;;;;;;;;;15.40;99.90;;;;;;4976294;28;19958;-74
2021/10/02 09:40:10;;;;;;;;;;;15.50;99.90;;;;;;4992093;28;19930;-74
2021/10/02 09:42:43;;;;;;;;;;;15.60;99.90;;;;;;4976463;28;19932;-74
2021/10/02 09:45:17;;;;;;;;;;;15.70;99.90;;;;;;4975687;28;19925;-73
2021/10/02 09:47:50;;;;;;;;;;;15.80;99.90;;;;;;4976596;28;19925;-74
2021/10/02 09:50:23;;;;;;;;;;;16.00;99.90;;;;;;4976738;28;19926;-74
2021/10/02 09:53:00;;;;;;;;;;;16.20;99.90;;;;;;4976052;28;19961;-74
2021/10/02 09:55:52;;;;;;;;;;;16.40;99.90;;;;;;4975492;28;19926;-74
2021/10/02 09:58:28;;;;;;;;;;;16.60;99.90;;;;;;4976254;28;19926;-74
2021/10/02 10:00:56;;;;;;;;;;;16.80;99.90;;;;;;4975715;28;19925;-74
2021/10/02 10:03:42;;;;;;;;;;;16.90;99.90;;;;;;4960671;28;19933;-73
2021/10/02 10:06:23;;;;;;;;;;;17.00;99.90;;;;;;4991738;28;20388;-74
2021/10/02 10:09:06;;;;;;;;;;;17.10;99.90;;;;;;4976102;28;19933;-73
2021/10/02 10:11:41;;;;;;;;;;;17.30;99.90;;;;;;4975659;28;19926;-74
2021/10/02 10:14:08;;;;;;;;;;;17.50;99.90;;;;;;4975846;28;19936;-74
2021/10/02 10:16:38;;;;;;;;;;;17.60;99.90;;;;;;4976207;28;19926;-73
2021/10/02 10:19:18;;;;;;;;;;;17.80;99.90;;;;;;4993531;28;19988;-73
2021/10/02 10:22:03;;;;;;;;;;;17.90;99.90;;;;;;4976964;28;19929;-74
2021/10/02 10:24:36;;;;;;;;;;;17.90;99.90;;;;;;4992953;28;19984;-73
2021/10/02 10:27:03;;;;;;;;;;;17.90;99.90;;;;;;4993321;28;19933;-74
2021/10/02 10:29:36;;;;;;;;;;;18.00;99.90;;;;;;4976935;28;19925;-74
2021/10/02 10:32:09;;;;;;;;;;;18.10;99.90;;;;;;4992413;28;20328;-72
2021/10/02 10:34:41;;;;;;;;;;;18.20;99.90;;;;;;4976058;28;19926;-73
2021/10/02 10:37:09;;;;;;;;;;;18.30;99.90;;;;;;4976035;28;19926;-75
2021/10/02 10:39:41;;;;;;;;;;;18.40;99.90;;;;;;4992449;28;19933;-73
2021/10/02 10:42:08;;;;;;;;;;;18.50;99.90;;;;;;4975845;28;19933;-73
2021/10/02 10:44:35;;;;;;;;;;;18.50;99.90;;;;;;4975505;28;19925;-73
2021/10/02 10:47:07;;;;;;;;;;;18.60;99.90;;;;;;4975757;28;19926;-73
2021/10/02 10:49:40;;;;;;;;;;;18.80;99.90;;;;;;4992571;28;19936;-73
2021/10/02 10:52:12;;;;;;;;;;;19.00;99.90;;;;;;4973660;28;20381;-73
2021/10/02 10:54:44;;;;;;;;;;;19.10;99.90;;;;;;4976470;28;19926;-73
2021/10/02 10:57:42;;;;;;;;;;;19.30;99.90;;;;;;4975832;28;19925;-73
2021/10/02 11:00:14;;;;;;;;;;;19.50;99.90;;;;;;4974828;28;19925;-73
2021/10/02 11:02:49;;;;;;;;;;;19.60;99.90;;;;;;4976733;28;19948;-73
2021/10/02 11:05:34;;;;;;;;;;;19.70;99.90;;;;;;4975596;28;19926;-73
2021/10/02 11:08:01;;;;;;;;;;;19.70;99.90;;;;;;4975909;28;19930;-73
2021/10/02 11:10:48;;;;;;;;;;;19.80;99.90;;;;;;4975543;28;19932;-73
2021/10/02 11:13:16;;;;;;;;;;;19.80;99.90;;;;;;4975588;28;19929;-73
2021/10/02 11:15:48;;;;;;;;;;;19.80;99.90;;;;;;4992896;28;20017;-73
2021/10/02 11:18:39;;;;;;;;;;;19.90;99.90;;;;;;4992000;28;19926;-73
2021/10/02 11:21:12;;;;;;;;;;;19.90;99.90;;;;;;4993094;28;19937;-73
2021/10/02 11:23:53;;;;;;;;;;;19.90;99.90;;;;;;4993009;28;19930;-73
2021/10/02 11:26:23;;;;;;;;;;;19.90;99.90;;;;;;4975488;28;19926;-73
2021/10/02 11:29:10;;;;;;;;;;;20.00;99.90;;;;;;4992953;28;19993;-73
2021/10/02 11:31:42;;;;;;;;;;;20.00;99.90;;;;;;4991410;28;19933;-73
2021/10/02 11:34:15;;;;;;;;;;;20.00;99.90;;;;;;4992678;28;19933;-73
2021/10/02 11:36:42;;;;;;;;;;;19.90;99.90;;;;;;4975563;28;19933;-73
2021/10/02 11:39:19;;;;;;;;;;;19.90;99.90;;;;;;4960209;28;20024;-73
2021/10/02 11:41:57;;;;;;;;;;;19.90;99.90;;;;;;4975345;28;19930;-73
2021/10/02 11:44:32;;;;;;;;;;;20.10;99.90;;;;;;4975137;28;19925;-73
2021/10/02 11:47:22;;;;;;;;;;;20.20;99.90;;;;;;4976528;28;19968;-73
2021/10/02 11:50:07;;;;;;;;;;;20.40;99.90;;;;;;4977147;28;19925;-73
2021/10/02 11:52:44;;;;;;;;;;;20.60;99.90;;;;;;4996685;28;19937;-73
2021/10/02 11:55:35;;;;;;;;;;;20.70;99.90;;;;;;4978889;28;19926;-73
2021/10/02 11:58:08;;;;;;;;;;;20.80;99.90;;;;;;4979472;28;19926;-73
2021/10/02 12:00:48;;;;;;;;;;;20.80;99.90;;;;;;4979241;28;19933;-73
2021/10/02 12:03:25;;;;;;;;;;;20.90;99.90;;;;;;4979547;28;19989;-73
2021/10/02 12:05:58;;;;;;;;;;;20.90;99.90;;;;;;4978567;28;19933;-73
2021/10/02 12:08:32;;;;;;;;;;;21.00;99.90;;;;;;4995871;28;19930;-73
2021/10/02 12:11:07;;;;;;;;;;;21.00;99.90;;;;;;4978366;28;19926;-73
2021/10/02 12:13:39;;;;;;;;;;;21.10;99.90;;;;;;4978310;28;19937;-73
2021/10/02 12:16:25;;;;;;;;;;;21.10;99.90;;;;;;4980227;28;20301;-73
2021/10/02 12:18:55;;;;;;;;;;;21.20;99.90;;;;;;4974116;28;19929;-73
2021/10/02 12:21:22;;;;;;;;;;;21.20;99.90;;;;;;4991665;28;19933;-73
2021/10/02 12:23:54;;;;;;;;;;;21.30;99.90;;;;;;4994436;28;19932;-73
2021/10/02 12:26:26;;;;;;;;;;;21.40;99.90;;;;;;4965791;28;19926;-73
2021/10/02 12:28:59;;;;;;;;;;;21.40;99.90;;;;;;4995698;28;19980;-73
2021/10/02 12:31:42;;;;;;;;;;;21.40;99.90;;;;;;4977758;28;20307;-73
2021/10/02 12:34:29;;;;;;;;;;;21.40;99.90;;;;;;4995291;28;19933;-73
2021/10/02 12:37:04;;;;;;;;;;;21.40;99.90;;;;;;4978956;28;19926;-73
2021/10/02 12:39:39;;;;;;;;;;;21.40;99.90;;;;;;4988339;28;19936;-73
2021/10/02 12:42:07;;;;;;;;;;;21.40;99.90;;;;;;4978024;28;19933;-73
2021/10/02 12:44:45;;;;;;;;;;;21.50;99.90;;;;;;4977331;28;19937;-73
2021/10/02 12:47:21;;;;;;;;;;;21.60;99.90;;;;;;4995685;28;19932;-73
2021/10/02 12:49:49;;;;;;;;;;;21.70;99.90;;;;;;4978446;28;20376;-73
2021/10/02 12:52:21;;;;;;;;;;;21.80;99.90;;;;;;4978164;28;20028;-73
2021/10/02 12:54:52;;;;;;;;;;;21.80;99.90;;;;;;4960788;28;19926;-73
2021/10/02 12:57:28;;;;;;;;;;;21.90;99.90;;;;;;4978102;28;19925;-73
2021/10/02 13:00:05;;;;;;;;;;;21.90;99.90;;;;;;4978548;28;19926;-73
2021/10/02 13:02:32;;;;;;;;;;;21.90;99.90;;;;;;4977103;28;20396;-73
2021/10/02 13:05:00;;;;;;;;;;;21.90;99.90;;;;;;4977244;28;20278;-73
2021/10/02 13:07:34;;;;;;;;;;;22.00;99.90;;;;;;4978107;28;19929;-73
2021/10/02 13:10:04;;;;;;;;;;;22.00;99.90;;;;;;4977957;28;19926;-73
2021/10/02 13:12:39;;;;;;;;;;;22.00;99.90;;;;;;4977675;28;19933;-73
2021/10/02 13:15:23;;;;;;;;;;;22.10;99.90;;;;;;4977248;28;19964;-72
2021/10/02 13:18:05;;;;;;;;;;;22.10;99.90;;;;;;4993813;28;20389;-73
2021/10/02 13:20:40;;;;;;;;;;;22.10;99.90;;;;;;4962006;28;20389;-73
2021/10/02 13:23:16;;;;;;;;;;;22.10;99.90;;;;;;4978547;28;20032;-73
2021/10/02 13:25:51;;;;;;;;;;;22.10;99.90;;;;;;4977241;28;19926;-73
2021/10/02 13:28:25;;;;;;;;;;;22.10;99.90;;;;;;4962131;28;19926;-73
2021/10/02 13:31:02;;;;;;;;;;;22.10;99.90;;;;;;4994852;28;19932;-73
2021/10/02 13:33:29;;;;;;;;;;;22.20;99.90;;;;;;4994890;28;19972;-73
2021/10/02 13:36:00;;;;;;;;;;;22.20;99.90;;;;;;4976955;28;19972;-73
2021/10/02 13:38:37;;;;;;;;;;;22.20;99.90;;;;;;4978430;28;20348;-73
2021/10/02 13:41:10;;;;;;;;;;;22.30;99.90;;;;;;4977453;28;19926;-73
2021/10/02 13:43:52;;;;;;;;;;;22.30;99.90;;;;;;4994863;28;20016;-73
2021/10/02 13:46:25;;;;;;;;;;;22.40;99.90;;;;;;4994465;28;19929;-73
2021/10/02 13:48:52;;;;;;;;;;;22.40;99.90;;;;;;4977001;28;20025;-73
2021/10/02 13:51:19;;;;;;;;;;;22.50;99.90;;;;;;4977392;28;20032;-73
2021/10/02 13:53:50;;;;;;;;;;;22.50;99.90;;;;;;4978052;28;19973;-73
2021/10/02 13:56:23;;;;;;;;;;;22.60;99.90;;;;;;4994125;28;20024;-73
2021/10/02 13:58:49;;;;;;;;;;;22.60;99.90;;;;;;4994475;28;20020;-73
2021/10/02 14:01:21;;;;;;;;;;;22.70;99.90;;;;;;4976826;28;19925;-73
2021/10/02 14:03:48;;;;;;;;;;;22.70;99.90;;;;;;4976924;28;19968;-73
2021/10/02 14:06:14;;;;;;;;;;;22.70;99.90;;;;;;4992652;28;19976;-73
2021/10/02 14:08:46;;;;;;;;;;;22.70;99.90;;;;;;4975427;28;19976;-73
2021/10/02 14:11:18;;;;;;;;;;;22.70;99.90;;;;;;4960956;28;20017;-73
2021/10/02 14:13:49;;;;;;;;;;;22.70;99.90;;;;;;4976682;28;19958;-73
2021/10/02 14:16:21;;;;;;;;;;;22.70;99.90;;;;;;4993348;28;19926;-74
2021/10/02 14:18:53;;;;;;;;;;;22.80;99.90;;;;;;4976027;28;19932;-73
2021/10/02 14:21:25;;;;;;;;;;;22.90;99.90;;;;;;4976947;28;19947;-73
2021/10/02 14:23:57;;;;;;;;;;;23.00;99.90;;;;;;4993815;28;20362;-73
2021/10/02 14:26:24;;;;;;;;;;;23.00;99.90;;;;;;4975841;28;20017;-73
2021/10/02 14:28:56;;;;;;;;;;;22.90;99.90;;;;;;4975881;28;20367;-73
2021/10/02 14:31:23;;;;;;;;;;;22.90;99.90;;;;;;4993187;28;19980;-73
2021/10/02 14:33:50;;;;;;;;;;;22.90;99.90;;;;;;4975727;28;19926;-72
2021/10/02 14:36:22;;;;;;;;;;;22.90;99.90;;;;;;4976405;28;20404;-73
2021/10/02 14:38:53;;;;;;;;;;;22.90;99.90;;;;;;4976350;28;19960;-73
2021/10/02 14:41:26;;;;;;;;;;;23.00;99.90;;;;;;4993074;28;19925;-72
2021/10/02 14:43:58;;;;;;;;;;;23.10;99.90;;;;;;4992967;28;19932;-73
2021/10/02 14:46:29;;;;;;;;;;;23.10;99.90;;;;;;4975433;28;19925;-73
2021/10/02 14:48:56;;;;;;;;;;;23.20;99.90;;;;;;4975568;28;19925;-73
2021/10/02 14:51:28;;;;;;;;;;;23.30;99.90;;;;;;4992993;28;20464;-73
2021/10/02 14:54:00;;;;;;;;;;;23.30;99.90;;;;;;4992840;28;20211;-72
2021/10/02 14:56:29;;;;;;;;;;;23.50;99.90;;;;;;4991304;28;19965;-72
2021/10/02 14:59:00;;;;;;;;;;;23.60;99.90;;;;;;4976154;28;19997;-74
2021/10/02 15:01:34;;;;;;;;;;;23.60;99.90;;;;;;4992712;28;19977;-73
2021/10/02 15:04:01;;;;;;;;;;;23.70;99.90;;;;;;4975434;28;20040;-73
2021/10/02 15:06:34;;;;;;;;;;;23.70;99.90;;;;;;4975231;28;19961;-73
2021/10/02 15:09:01;;;;;;;;;;;23.80;99.90;;;;;;4959582;28;20024;-73
2021/10/02 15:11:33;;;;;;;;;;;24.00;99.90;;;;;;4992542;28;19976;-72
2021/10/02 15:13:59;;;;;;;;;;;24.20;99.90;;;;;;4967112;28;20595;-73
2021/10/02 15:16:26;;;;;;;;;;;24.30;99.90;;;;;;4983312;28;20472;-73
2021/10/02 15:18:53;;;;;;;;;;;24.50;99.90;;;;;;4983810;28;20023;-73
2021/10/02 15:21:27;;;;;;;;;;;24.40;99.90;;;;;;4975627;28;20083;-73
2021/10/02 15:24:01;;;;;;;;;;;23.70;99.90;;;;;;4969735;28;19936;-73
2021/10/02 15:26:30;;;;;;;;;;;23.20;99.90;;;;;;4974641;28;20114;-73
2021/10/02 15:29:04;;;;;;;;;;;22.90;99.90;;;;;;4976307;28;19957;-73
2021/10/02 15:31:32;;;;;;;;;;;22.50;99.90;;;;;;4975324;28;19926;-73
2021/10/02 15:34:01;;;;;;;;;;;22.10;99.90;;;;;;4975189;28;19926;-73
2021/10/02 15:36:35;;;;;;;;;;;21.80;99.90;;;;;;4975347;28;20058;-73
2021/10/02 15:39:07;;;;;;;;;;;21.60;99.90;;;;;;4960094;28;20040;-73